createdAt,value
2023-05-08T00:01:02.941Z,7.84
2023-05-08T00:03:30.244Z,7.83
2023-05-08T00:08:34.207Z,7.86
2023-05-08T00:11:01.216Z,7.78
2023-05-08T00:13:30.040Z,7.77
2023-05-08T00:15:56.847Z,7.75
2023-05-08T00:18:23.552Z,7.73
2023-05-08T00:20:50.849Z,7.71
2023-05-08T00:23:17.645Z,7.69
2023-05-08T00:25:44.380Z,7.68
2023-05-08T00:28:11.180Z,7.67
2023-05-08T00:30:38.501Z,7.66
2023-05-08T00:33:13.017Z,7.64
2023-05-08T00:35:42.368Z,7.63
2023-05-08T00:38:09.450Z,7.61
2023-05-08T00:40:39.465Z,7.60
2023-05-08T00:43:06.849Z,7.59
2023-05-08T00:45:36.589Z,7.59
2023-05-08T00:48:03.515Z,7.56
2023-05-08T00:50:31.388Z,7.54
2023-05-08T00:52:58.304Z,7.52
2023-05-08T00:55:25.184Z,7.50
2023-05-08T00:57:52.347Z,7.48
2023-05-08T01:00:19.212Z,7.46
2023-05-08T01:02:46.743Z,7.44
2023-05-08T01:05:13.764Z,7.43
2023-05-08T01:07:40.864Z,7.41
2023-05-08T01:10:08.115Z,7.39
2023-05-08T01:13:00.261Z,7.37
2023-05-08T01:15:30.664Z,7.33
2023-05-08T01:18:16.686Z,7.31
2023-05-08T01:21:12.169Z,7.30
2023-05-08T01:24:25.237Z,7.30
2023-05-08T01:27:15.173Z,7.29
2023-05-08T01:29:55.239Z,7.28
2023-05-08T01:32:25.870Z,7.25
2023-05-08T01:35:20.952Z,7.25
2023-05-08T01:38:06.312Z,7.24
2023-05-08T01:40:54.318Z,7.23
2023-05-08T01:43:28.593Z,7.22
2023-05-08T01:45:55.862Z,7.21
2023-05-08T01:48:31.140Z,7.20
2023-05-08T01:51:13.755Z,7.19
2023-05-08T01:53:42.244Z,7.17
2023-05-08T01:56:11.552Z,7.16
2023-05-08T01:58:38.670Z,7.16
2023-05-08T02:01:05.579Z,7.15
2023-05-08T02:03:32.477Z,7.14
2023-05-08T02:05:59.397Z,7.13
2023-05-08T02:08:26.446Z,7.12
2023-05-08T02:10:53.497Z,7.10
2023-05-08T02:13:21.492Z,7.08
2023-05-08T02:15:49.074Z,7.07
2023-05-08T02:18:18.445Z,7.06
2023-05-08T02:20:45.381Z,7.05
2023-05-08T02:23:12.290Z,7.04
2023-05-08T02:25:39.229Z,7.03
2023-05-08T02:28:07.550Z,7.01
2023-05-08T02:30:34.452Z,7.00
2023-05-08T02:33:01.332Z,6.99
2023-05-08T02:35:28.271Z,6.99
2023-05-08T02:37:55.521Z,6.98
2023-05-08T02:40:22.998Z,6.97
2023-05-08T02:42:49.928Z,6.96
2023-05-08T02:45:16.858Z,6.95
2023-05-08T02:48:20.087Z,6.94
2023-05-08T02:51:05.749Z,6.92
2023-05-08T02:53:42.675Z,6.92
2023-05-08T02:56:21.538Z,6.90
2023-05-08T02:59:00.935Z,6.88
2023-05-08T03:01:35.201Z,6.86
2023-05-08T03:04:05.732Z,6.86
2023-05-08T03:06:42.209Z,6.87
2023-05-08T03:09:15.901Z,6.87
2023-05-08T03:11:44.674Z,6.87
2023-05-08T03:14:12.171Z,6.87
2023-05-08T03:16:39.639Z,6.88
2023-05-08T03:19:29.876Z,6.89
2023-05-08T03:21:56.918Z,6.88
2023-05-08T03:24:23.829Z,6.89
2023-05-08T03:26:51.077Z,6.89
2023-05-08T03:29:18.007Z,6.89
2023-05-08T03:31:45.254Z,6.90
2023-05-08T03:34:12.404Z,6.90
2023-05-08T03:36:39.998Z,6.90
2023-05-08T03:39:07.124Z,6.92
2023-05-08T03:41:33.969Z,6.92
2023-05-08T03:44:01.366Z,6.93
2023-05-08T03:46:28.175Z,6.94
2023-05-08T03:48:56.052Z,6.95
2023-05-08T03:51:22.924Z,6.96
2023-05-08T03:53:50.552Z,6.96
2023-05-08T03:56:17.946Z,6.97
2023-05-08T03:58:56.148Z,6.97
2023-05-08T04:01:40.227Z,6.98
2023-05-08T04:04:16.289Z,6.98
2023-05-08T04:06:51.185Z,6.98
2023-05-08T04:09:26.639Z,6.99
2023-05-08T04:12:06.133Z,7.00
2023-05-08T04:14:37.197Z,7.02
2023-05-08T04:17:06.825Z,7.06
2023-05-08T04:19:35.925Z,7.08
2023-05-08T04:22:05.831Z,7.10
2023-05-08T04:24:34.620Z,7.12
2023-05-08T04:27:02.049Z,7.15
2023-05-08T04:29:29.760Z,7.17
2023-05-08T04:31:56.587Z,7.21
2023-05-08T04:34:23.551Z,7.25
2023-05-08T04:36:50.413Z,7.29
2023-05-08T04:39:17.701Z,7.31
2023-05-08T04:41:45.233Z,7.34
2023-05-08T04:44:13.360Z,7.35
2023-05-08T04:46:40.559Z,7.39
2023-05-08T04:49:07.668Z,7.41
2023-05-08T04:51:35.846Z,7.44
2023-05-08T04:54:02.667Z,7.47
2023-05-08T04:56:29.903Z,7.49
2023-05-08T04:58:56.686Z,7.55
2023-05-08T05:01:23.856Z,7.63
2023-05-08T05:03:50.784Z,7.71
2023-05-08T05:06:18.675Z,7.77
2023-05-08T05:08:45.410Z,7.80
2023-05-08T05:11:12.312Z,7.88
2023-05-08T05:13:39.422Z,8.01
2023-05-08T05:16:07.159Z,8.11
2023-05-08T05:18:35.868Z,8.20
2023-05-08T05:21:03.760Z,8.30
2023-05-08T05:23:31.418Z,8.36
2023-05-08T05:25:58.234Z,8.46
2023-05-08T05:28:25.605Z,8.53
2023-05-08T05:30:52.631Z,8.58
2023-05-08T05:33:19.670Z,8.60
2023-05-08T05:35:46.852Z,8.61
2023-05-08T05:38:13.624Z,8.65
2023-05-08T05:40:40.722Z,8.71
2023-05-08T05:43:08.395Z,8.78
2023-05-08T05:45:35.701Z,8.85
2023-05-08T05:48:04.866Z,8.89
2023-05-08T05:50:33.274Z,8.95
2023-05-08T05:53:00.325Z,9.02
2023-05-08T05:55:27.595Z,9.09
2023-05-08T05:57:54.787Z,9.18
2023-05-08T06:00:21.871Z,9.25
2023-05-08T06:02:50.725Z,9.26
2023-05-08T06:05:22.533Z,9.28
2023-05-08T06:07:49.791Z,9.34
2023-05-08T06:10:17.206Z,9.37
2023-05-08T06:12:44.240Z,9.38
2023-05-08T06:15:12.127Z,9.39
2023-05-08T06:17:39.496Z,9.36
2023-05-08T06:20:07.784Z,9.38
2023-05-08T06:22:37.065Z,9.45
2023-05-08T06:25:06.511Z,9.52
2023-05-08T06:27:34.530Z,9.61
2023-05-08T06:30:01.577Z,9.68
2023-05-08T06:32:28.787Z,9.73
2023-05-08T06:34:56.166Z,9.78
2023-05-08T06:37:23.140Z,9.84
2023-05-08T06:39:54.702Z,9.90
2023-05-08T06:42:31.299Z,9.94
2023-05-08T06:44:58.100Z,10.01
2023-05-08T06:47:25.302Z,10.10
2023-05-08T06:49:53.411Z,10.17
2023-05-08T06:52:20.510Z,10.18
2023-05-08T06:54:47.183Z,10.24
2023-05-08T06:57:14.154Z,10.33
2023-05-08T06:59:40.895Z,10.37
2023-05-08T07:02:09.321Z,10.34
2023-05-08T07:04:36.714Z,10.38
2023-05-08T07:07:03.586Z,10.41
2023-05-08T07:09:30.502Z,10.43
2023-05-08T07:11:57.661Z,10.51
2023-05-08T07:14:24.456Z,10.55
2023-05-08T07:16:51.285Z,10.49
2023-05-08T07:19:18.806Z,10.45
2023-05-08T07:21:46.856Z,10.47
2023-05-08T07:24:13.778Z,10.45
2023-05-08T07:26:40.873Z,10.41
2023-05-08T07:29:07.738Z,10.38
2023-05-08T07:31:34.784Z,10.39
2023-05-08T07:34:01.931Z,10.35
2023-05-08T07:36:28.952Z,10.34
2023-05-08T07:38:56.262Z,10.37
2023-05-08T07:41:23.126Z,10.38
2023-05-08T07:43:50.047Z,10.34
2023-05-08T07:46:17.692Z,10.31
2023-05-08T07:48:44.755Z,10.29
2023-05-08T07:51:11.750Z,10.28
2023-05-08T07:53:39.064Z,10.29
2023-05-08T07:56:06.129Z,10.34
2023-05-08T07:58:33.260Z,10.38
2023-05-08T08:01:01.315Z,10.44
2023-05-08T08:03:29.206Z,10.54
2023-05-08T08:05:56.462Z,10.57
2023-05-08T08:08:23.492Z,10.58
2023-05-08T08:10:50.474Z,10.58
2023-05-08T08:13:17.963Z,10.61
2023-05-08T08:15:44.880Z,10.63
2023-05-08T08:18:12.562Z,10.65
2023-05-08T08:20:39.606Z,10.65
2023-05-08T08:23:06.401Z,10.66
2023-05-08T08:25:33.306Z,10.71
2023-05-08T08:28:00.394Z,10.76
2023-05-08T08:30:27.183Z,10.81
2023-05-08T08:32:54.166Z,10.84
2023-05-08T08:35:22.367Z,10.83
2023-05-08T08:37:49.622Z,10.84
2023-05-08T08:40:16.606Z,10.88
2023-05-08T08:42:43.442Z,10.92
2023-05-08T08:45:10.476Z,10.96
2023-05-08T08:47:37.833Z,11.03
2023-05-08T08:50:06.298Z,11.05
2023-05-08T08:52:53.930Z,11.06
2023-05-08T08:55:22.671Z,11.05
2023-05-08T08:58:00.118Z,11.09
2023-05-08T09:00:28.532Z,11.15
2023-05-08T09:02:55.337Z,11.18
2023-05-08T09:05:23.053Z,11.17
2023-05-08T09:07:50.929Z,11.18
2023-05-08T09:10:17.889Z,11.19
2023-05-08T09:12:45.137Z,11.21
2023-05-08T09:15:12.641Z,11.23
2023-05-08T09:17:40.292Z,11.26
2023-05-08T09:20:07.737Z,11.34
2023-05-08T09:22:37.710Z,11.39
2023-05-08T09:25:04.853Z,11.41
2023-05-08T09:27:32.261Z,11.45
2023-05-08T09:30:03.544Z,11.55
2023-05-08T09:32:31.666Z,11.64
2023-05-08T09:34:59.184Z,11.65
2023-05-08T09:37:26.859Z,11.69
2023-05-08T09:39:54.256Z,11.74
2023-05-08T09:42:22.871Z,11.79
2023-05-08T09:44:51.148Z,11.81
2023-05-08T09:47:22.549Z,11.87
2023-05-08T09:50:16.338Z,11.93
2023-05-08T09:52:46.483Z,11.92
2023-05-08T09:55:13.299Z,11.86
2023-05-08T09:57:51.023Z,11.84
2023-05-08T10:00:18.084Z,11.88
2023-05-08T10:03:01.637Z,11.88
2023-05-08T10:05:33.905Z,11.86
2023-05-08T10:08:19.584Z,11.83
2023-05-08T10:10:46.760Z,11.87
2023-05-08T10:13:13.876Z,11.89
2023-05-08T10:15:41.803Z,11.93
2023-05-08T10:18:10.477Z,11.98
2023-05-08T10:20:39.728Z,11.99
2023-05-08T10:23:11.117Z,12.03
2023-05-08T10:25:42.247Z,12.10
2023-05-08T10:28:18.392Z,12.17
2023-05-08T10:30:48.247Z,12.20
2023-05-08T10:33:17.541Z,12.23
2023-05-08T10:35:44.883Z,12.24
2023-05-08T10:38:12.064Z,12.20
2023-05-08T10:40:38.942Z,12.18
2023-05-08T10:43:09.530Z,12.14
2023-05-08T10:45:36.412Z,12.14
2023-05-08T10:48:08.375Z,12.17
2023-05-08T10:50:59.102Z,12.19
2023-05-08T10:53:53.775Z,12.23
2023-05-08T10:56:27.242Z,12.24
2023-05-08T10:58:57.809Z,12.20
2023-05-08T11:01:25.444Z,12.15
2023-05-08T11:03:54.449Z,12.10
2023-05-08T11:06:48.695Z,12.07
2023-05-08T11:09:22.563Z,12.06
2023-05-08T11:12:00.345Z,12.06
2023-05-08T11:14:28.070Z,12.10
2023-05-08T11:16:59.690Z,12.12
2023-05-08T11:19:27.327Z,12.14
2023-05-08T11:22:16.664Z,12.19
2023-05-08T11:25:00.561Z,12.31
2023-05-08T11:27:39.750Z,12.43
2023-05-08T11:30:26.446Z,12.53
2023-05-08T11:33:03.070Z,12.61
2023-05-08T11:35:50.488Z,12.57
2023-05-08T11:38:22.887Z,12.45
2023-05-08T11:41:11.626Z,12.37
2023-05-08T11:44:00.220Z,12.33
2023-05-08T11:46:37.895Z,12.36
2023-05-08T11:49:05.196Z,12.39
2023-05-08T11:51:32.628Z,12.39
2023-05-08T11:54:00.047Z,12.37
2023-05-08T11:56:27.028Z,12.34
2023-05-08T11:59:04.058Z,12.31
2023-05-08T12:01:32.406Z,12.27
2023-05-08T12:04:09.775Z,12.26
2023-05-08T12:06:39.134Z,12.27
2023-05-08T12:09:16.031Z,12.27
2023-05-08T12:11:45.075Z,12.27
2023-05-08T12:14:13.112Z,12.30
2023-05-08T12:16:40.127Z,12.33
2023-05-08T12:19:11.035Z,12.36
2023-05-08T12:21:37.966Z,12.38
2023-05-08T12:24:10.884Z,12.40
2023-05-08T12:26:37.866Z,12.43
2023-05-08T12:29:05.833Z,12.49
2023-05-08T12:31:37.059Z,12.57
2023-05-08T12:34:05.447Z,12.66
2023-05-08T12:36:36.172Z,12.68
2023-05-08T12:39:15.897Z,12.66
2023-05-08T12:41:49.688Z,12.66
2023-05-08T12:44:23.355Z,12.68
2023-05-08T12:46:54.285Z,12.69
2023-05-08T12:49:31.078Z,12.71
2023-05-08T12:52:09.281Z,12.73
2023-05-08T12:54:37.567Z,12.74
2023-05-08T12:57:17.586Z,12.71
2023-05-08T12:59:45.366Z,12.70
2023-05-08T13:02:23.763Z,12.65
2023-05-08T13:04:57.688Z,12.64
2023-05-08T13:07:24.871Z,12.64
2023-05-08T13:09:59.522Z,12.66
2023-05-08T13:12:26.984Z,12.68
2023-05-08T13:14:54.220Z,12.74
2023-05-08T13:17:21.381Z,12.73
2023-05-08T13:19:48.502Z,12.70
2023-05-08T13:22:15.354Z,12.68
2023-05-08T13:24:42.227Z,12.67
2023-05-08T13:27:09.432Z,12.67
2023-05-08T13:29:36.993Z,12.67
2023-05-08T13:32:04.170Z,12.67
2023-05-08T13:34:31.527Z,12.68
2023-05-08T13:36:58.756Z,12.68
2023-05-08T13:39:25.682Z,12.67
2023-05-08T13:41:52.672Z,12.70
2023-05-08T13:44:19.724Z,12.68
2023-05-08T13:46:46.558Z,12.63
2023-05-08T13:49:13.767Z,12.62
2023-05-08T13:51:40.816Z,12.63
2023-05-08T13:54:08.239Z,12.62
2023-05-08T13:56:35.237Z,12.56
2023-05-08T13:59:02.453Z,12.53
2023-05-08T14:01:29.855Z,12.53
2023-05-08T14:03:56.820Z,12.56
2023-05-08T14:06:24.178Z,12.61
2023-05-08T14:08:52.742Z,12.62
2023-05-08T14:11:21.862Z,12.62
2023-05-08T14:13:50.850Z,12.59
2023-05-08T14:16:17.974Z,12.56
2023-05-08T14:18:45.404Z,12.50
2023-05-08T14:21:12.287Z,12.44
2023-05-08T14:23:39.610Z,12.39
2023-05-08T14:26:06.869Z,12.35
2023-05-08T14:28:33.965Z,12.32
2023-05-08T14:31:01.138Z,12.29
2023-05-08T14:33:28.180Z,12.29
2023-05-08T14:35:55.159Z,12.29
2023-05-08T14:38:22.386Z,12.30
2023-05-08T14:40:50.512Z,12.30
2023-05-08T14:43:17.951Z,12.28
2023-05-08T14:45:44.858Z,12.27
2023-05-08T14:48:12.007Z,12.28
2023-05-08T14:50:39.131Z,12.28
2023-05-08T14:53:06.164Z,12.29
2023-05-08T14:55:33.698Z,12.27
2023-05-08T14:58:00.654Z,12.27
2023-05-08T15:00:27.720Z,12.24
2023-05-08T15:02:54.835Z,12.23
2023-05-08T15:05:22.159Z,12.22
2023-05-08T15:07:49.698Z,12.20
2023-05-08T15:10:16.711Z,12.15
2023-05-08T15:12:44.129Z,12.11
2023-05-08T15:15:13.188Z,12.10
2023-05-08T15:17:41.130Z,12.11
2023-05-08T15:20:08.754Z,12.11
2023-05-08T15:22:36.481Z,12.11
2023-05-08T15:25:03.949Z,12.10
2023-05-08T15:27:31.254Z,12.07
2023-05-08T15:29:58.701Z,12.03
2023-05-08T15:32:25.747Z,12.01
2023-05-08T15:34:52.707Z,11.98
2023-05-08T15:37:20.219Z,11.98
2023-05-08T15:39:47.211Z,11.98
2023-05-08T15:42:14.545Z,11.99
2023-05-08T15:44:54.679Z,11.98
2023-05-08T15:47:22.682Z,11.97
2023-05-08T15:49:51.415Z,11.97
2023-05-08T15:52:19.157Z,11.95
2023-05-08T15:54:46.618Z,11.93
2023-05-08T15:57:13.912Z,11.91
2023-05-08T15:59:41.073Z,11.91
2023-05-08T16:02:08.207Z,11.90
2023-05-08T16:04:35.516Z,11.89
2023-05-08T16:07:02.795Z,11.89
2023-05-08T16:09:29.807Z,11.89
2023-05-08T16:11:56.722Z,11.89
2023-05-08T16:14:23.864Z,11.88
2023-05-08T16:16:50.808Z,11.87
2023-05-08T16:19:17.695Z,11.85
2023-05-08T16:21:47.466Z,11.84
2023-05-08T16:24:14.519Z,11.83
2023-05-08T16:26:41.492Z,11.82
2023-05-08T16:29:08.428Z,11.80
2023-05-08T16:31:36.325Z,11.78
2023-05-08T16:34:03.733Z,11.77
2023-05-08T16:36:31.327Z,11.77
2023-05-08T16:38:58.281Z,11.76
2023-05-08T16:41:26.273Z,11.74
2023-05-08T16:43:53.321Z,11.72
2023-05-08T16:46:29.128Z,11.70
2023-05-08T16:48:58.356Z,11.68
2023-05-08T16:51:25.248Z,11.65
2023-05-08T16:53:52.233Z,11.60
2023-05-08T16:56:20.267Z,11.55
2023-05-08T16:58:47.373Z,11.50
2023-05-08T17:01:14.556Z,11.46
2023-05-08T17:03:42.913Z,11.42
2023-05-08T17:06:10.253Z,11.37
2023-05-08T17:08:37.389Z,11.33
2023-05-08T17:11:04.648Z,11.30
2023-05-08T17:13:36.497Z,11.26
2023-05-08T17:16:13.208Z,11.22
2023-05-08T17:18:40.835Z,11.17
2023-05-08T17:21:07.990Z,11.12
2023-05-08T17:23:34.936Z,11.07
2023-05-08T17:26:02.068Z,11.01
2023-05-08T17:28:29.356Z,10.95
2023-05-08T17:30:56.477Z,10.90
2023-05-08T17:33:24.051Z,10.85
2023-05-08T17:35:51.244Z,10.80
2023-05-08T17:38:18.326Z,10.75
2023-05-08T17:40:46.151Z,10.70
2023-05-08T17:43:13.543Z,10.65
2023-05-08T17:45:40.495Z,10.61
2023-05-08T17:48:07.531Z,10.56
2023-05-08T17:50:35.109Z,10.50
2023-05-08T17:53:01.957Z,10.46
2023-05-08T17:55:31.170Z,10.41
2023-05-08T17:57:58.375Z,10.36
2023-05-08T18:00:25.447Z,10.31
2023-05-08T18:02:52.552Z,10.27
2023-05-08T18:05:19.816Z,10.21
2023-05-08T18:07:47.578Z,10.16
2023-05-08T18:10:14.796Z,10.12
2023-05-08T18:12:42.108Z,10.07
2023-05-08T18:15:09.541Z,10.02
2023-05-08T18:17:38.304Z,9.96
2023-05-08T18:20:07.485Z,9.91
2023-05-08T18:22:35.148Z,9.86
2023-05-08T18:25:02.357Z,9.82
2023-05-08T18:27:32.966Z,9.77
2023-05-08T18:29:59.926Z,9.71
2023-05-08T18:32:26.990Z,9.65
2023-05-08T18:34:53.848Z,9.60
2023-05-08T18:37:21.422Z,9.55
2023-05-08T18:39:50.304Z,9.50
2023-05-08T18:42:17.330Z,9.45
2023-05-08T18:44:45.731Z,9.41
2023-05-08T18:47:12.793Z,9.37
2023-05-08T18:49:39.992Z,9.32
2023-05-08T18:52:06.909Z,9.28
2023-05-08T18:54:35.414Z,9.24
2023-05-08T18:57:02.287Z,9.18
2023-05-08T18:59:29.288Z,9.14
2023-05-08T19:01:57.137Z,9.09
2023-05-08T19:04:27.251Z,9.06
2023-05-08T19:06:57.434Z,9.04
2023-05-08T19:09:24.369Z,9.00
2023-05-08T19:11:51.385Z,8.99
2023-05-08T19:14:18.426Z,8.96
2023-05-08T19:16:46.638Z,8.93
2023-05-08T19:19:13.442Z,8.89
2023-05-08T19:21:42.921Z,8.84
2023-05-08T19:24:09.977Z,8.80
2023-05-08T19:26:37.272Z,8.77
2023-05-08T19:29:05.084Z,8.74
2023-05-08T19:31:32.405Z,8.71
2023-05-08T19:34:00.965Z,8.69
2023-05-08T19:36:27.887Z,8.66
2023-05-08T19:38:55.316Z,8.64
2023-05-08T19:41:23.645Z,8.61
2023-05-08T19:43:51.129Z,8.59
2023-05-08T19:46:18.239Z,8.57
2023-05-08T19:48:45.192Z,8.54
2023-05-08T19:51:12.275Z,8.51
2023-05-08T19:53:40.028Z,8.47
2023-05-08T19:56:07.235Z,8.45
2023-05-08T19:58:34.343Z,8.44
2023-05-08T20:01:01.373Z,8.42
2023-05-08T20:03:28.392Z,8.39
2023-05-08T20:05:55.526Z,8.37
2023-05-08T20:08:22.886Z,8.33
2023-05-08T20:10:50.080Z,8.31
2023-05-08T20:13:17.218Z,8.28
2023-05-08T20:15:44.607Z,8.26
2023-05-08T20:18:12.200Z,8.24
2023-05-08T20:20:39.160Z,8.20
2023-05-08T20:23:06.793Z,8.16
2023-05-08T20:25:33.806Z,8.13
2023-05-08T20:28:00.793Z,8.08
2023-05-08T20:30:27.870Z,8.06
2023-05-08T20:32:54.958Z,8.04
2023-05-08T20:35:22.166Z,8.03
2023-05-08T20:37:49.192Z,8.02
2023-05-08T20:40:16.266Z,8.03
2023-05-08T20:42:43.709Z,8.02
2023-05-08T20:45:10.997Z,8.01
2023-05-08T20:47:39.206Z,7.99
2023-05-08T20:50:06.840Z,7.99
2023-05-08T20:52:35.367Z,8.00
2023-05-08T20:55:04.962Z,7.98
2023-05-08T20:57:31.922Z,7.98
2023-05-08T20:59:58.849Z,7.99
2023-05-08T21:02:25.836Z,7.98
2023-05-08T21:04:52.835Z,7.96
2023-05-08T21:07:19.968Z,7.94
2023-05-08T21:09:46.880Z,7.92
2023-05-08T21:12:14.831Z,7.90
2023-05-08T21:14:43.581Z,7.89
2023-05-08T21:17:10.477Z,7.89
2023-05-08T21:19:37.721Z,7.92
2023-05-08T21:22:04.806Z,7.92
2023-05-08T21:24:32.105Z,7.89
2023-05-08T21:26:59.535Z,7.87
2023-05-08T21:29:26.587Z,7.85
2023-05-08T21:31:53.572Z,7.84
2023-05-08T21:34:23.337Z,7.82
2023-05-08T21:36:50.475Z,7.80
2023-05-08T21:39:17.339Z,7.78
2023-05-08T21:41:44.306Z,7.77
2023-05-08T21:44:12.276Z,7.76
2023-05-08T21:46:39.824Z,7.77
2023-05-08T21:49:06.747Z,7.76
2023-05-08T21:51:34.235Z,7.75
2023-05-08T21:54:01.163Z,7.74
2023-05-08T21:56:28.060Z,7.74
2023-05-08T21:58:55.267Z,7.73
2023-05-08T22:01:22.173Z,7.73
2023-05-08T22:03:49.248Z,7.72
2023-05-08T22:06:16.501Z,7.70
2023-05-08T22:08:43.488Z,7.68
2023-05-08T22:11:10.470Z,7.66
2023-05-08T22:13:37.423Z,7.62
2023-05-08T22:16:04.812Z,7.59
2023-05-08T22:18:31.736Z,7.57
2023-05-08T22:20:58.764Z,7.56
2023-05-08T22:23:25.772Z,7.55
2023-05-08T22:25:52.747Z,7.52
2023-05-08T22:28:19.705Z,7.49
2023-05-08T22:30:46.764Z,7.46
2023-05-08T22:33:13.655Z,7.45
2023-05-08T22:35:40.760Z,7.42
2023-05-08T22:38:07.571Z,7.38
2023-05-08T22:40:34.766Z,7.36
2023-05-08T22:43:01.684Z,7.33
2023-05-08T22:45:29.261Z,7.30
2023-05-08T22:47:56.239Z,7.25
2023-05-08T22:50:23.217Z,7.22
2023-05-08T22:52:50.162Z,7.20
2023-05-08T22:55:17.504Z,7.18
2023-05-08T22:57:44.576Z,7.15
2023-05-08T23:00:12.164Z,7.14
2023-05-08T23:02:42.151Z,7.12
2023-05-08T23:05:09.223Z,7.10
2023-05-08T23:07:36.133Z,7.08
2023-05-08T23:10:02.941Z,7.05
2023-05-08T23:12:30.610Z,7.02
2023-05-08T23:14:57.502Z,6.99
2023-05-08T23:17:24.495Z,6.97
2023-05-08T23:19:51.489Z,6.96
2023-05-08T23:22:18.375Z,6.94
2023-05-08T23:24:45.218Z,6.93
2023-05-08T23:27:12.354Z,6.91
2023-05-08T23:29:39.214Z,6.89
2023-05-08T23:32:06.357Z,6.86
2023-05-08T23:34:33.595Z,6.83
2023-05-08T23:37:00.920Z,6.81
2023-05-08T23:39:27.910Z,6.79
2023-05-08T23:41:54.928Z,6.77
2023-05-08T23:44:21.977Z,6.75
2023-05-08T23:46:49.003Z,6.72
2023-05-08T23:49:16.114Z,6.69
2023-05-08T23:51:42.955Z,6.67
2023-05-08T23:54:09.870Z,6.65
2023-05-08T23:56:37.132Z,6.63
2023-05-08T23:59:04.156Z,6.60
